Time;durP1;ratioP1;P1;durP2;ratioP2;P2;SDS_P1;SDS_P2;PMS_P1;PMS_P2;Temp;Humidity;BMP_temperature;BMP_pressure;BME280_temperature;BME280_humidity;BME280_pressure;Samples;Min_cycle;Max_cycle;Signal;HPM_P1;HPM_P2
2022/02/20 00:01:39;;;;;;;0.10;0.10;;;7.20;99.90;;;;;;5025542;28;20190;-85
2022/02/20 00:04:04;;;;;;;1.50;0.47;;;7.20;99.90;;;;;;5026890;28;20189;-84
2022/02/20 00:06:30;;;;;;;0.20;0.20;;;7.20;99.90;;;;;;5025750;28;20248;-87
2022/02/20 00:08:55;;;;;;;0.10;0.10;;;7.20;99.90;;;;;;5024135;28;20701;-84
2022/02/20 00:11:21;;;;;;;0.10;0.10;;;7.10;99.90;;;;;;5025307;28;20183;-86
2022/02/20 00:13:47;;;;;;;0.20;0.20;;;7.10;99.90;;;;;;5020761;28;20211;-87
2022/02/20 00:16:12;;;;;;;0.00;0.00;;;7.10;99.90;;;;;;5025403;28;20742;-85
2022/02/20 00:18:38;;;;;;;0.33;0.33;;;7.10;99.90;;;;;;5026891;28;20187;-85
2022/02/20 00:21:06;;;;;;;0.10;0.10;;;7.10;99.90;;;;;;5025837;28;20269;-85
2022/02/20 00:23:31;;;;;;;0.10;0.10;;;7.10;99.90;;;;;;5026699;28;20201;-85
2022/02/20 00:25:57;;;;;;;0.20;0.20;;;7.10;99.90;;;;;;5027214;28;20191;-86
2022/02/20 00:28:23;;;;;;;0.57;0.40;;;7.10;99.90;;;;;;5024951;28;20212;-86
2022/02/20 00:30:50;;;;;;;0.20;0.20;;;7.10;99.90;;;;;;5026508;28;20213;-87
2022/02/20 00:33:15;;;;;;;0.20;0.20;;;7.10;99.90;;;;;;5026536;28;20179;-85
2022/02/20 00:35:41;;;;;;;0.43;0.33;;;7.20;99.90;;;;;;5026811;28;20191;-85
2022/02/20 00:38:08;;;;;;;0.10;0.10;;;7.20;99.90;;;;;;5024283;28;20190;-85
2022/02/20 00:40:33;;;;;;;0.10;0.10;;;7.20;99.90;;;;;;5026816;28;20497;-85
2022/02/20 00:43:00;;;;;;;0.10;0.10;;;7.20;99.90;;;;;;5022473;28;20277;-85
2022/02/20 00:45:26;;;;;;;0.20;0.20;;;7.20;99.90;;;;;;5025235;28;20201;-85
2022/02/20 00:47:53;;;;;;;3.10;0.30;;;7.20;99.90;;;;;;5026263;28;20206;-85
2022/02/20 00:50:18;;;;;;;0.23;0.23;;;7.30;99.90;;;;;;5027659;28;20644;-87
2022/02/20 00:52:44;;;;;;;0.10;0.10;;;7.20;99.90;;;;;;5022599;28;20322;-85
2022/02/20 00:55:10;;;;;;;0.10;0.10;;;7.30;99.90;;;;;;5025948;28;20210;-87
2022/02/20 00:57:35;;;;;;;0.17;0.17;;;7.20;99.90;;;;;;5025259;28;20294;-87
2022/02/20 01:00:03;;;;;;;0.37;0.23;;;7.20;99.90;;;;;;5025225;28;20262;-85
2022/02/20 01:02:29;;;;;;;0.30;0.30;;;7.30;99.90;;;;;;5024138;28;20184;-85
2022/02/20 01:04:54;;;;;;;0.10;0.10;;;7.30;99.90;;;;;;5023507;28;20676;-85
2022/02/20 01:07:21;;;;;;;0.10;0.10;;;7.30;99.90;;;;;;5024753;28;20207;-84
2022/02/20 01:09:49;;;;;;;0.10;0.10;;;7.30;99.90;;;;;;5026387;28;20211;-86
2022/02/20 01:12:16;;;;;;;0.23;0.20;;;7.30;99.90;;;;;;5026708;28;20194;-85
2022/02/20 01:14:42;;;;;;;0.10;0.10;;;7.30;99.90;;;;;;5025573;28;20191;-85
2022/02/20 01:17:08;;;;;;;0.10;0.10;;;7.30;99.90;;;;;;5022519;28;20224;-87
2022/02/20 01:19:34;;;;;;;0.80;0.73;;;7.30;99.90;;;;;;5026475;28;20183;-85
2022/02/20 01:21:59;;;;;;;0.10;0.10;;;7.30;99.90;;;;;;5027018;28;20274;-85
2022/02/20 01:24:25;;;;;;;0.20;0.20;;;7.30;99.90;;;;;;5025969;28;20766;-85
2022/02/20 01:26:50;;;;;;;0.30;0.30;;;7.30;99.90;;;;;;5025404;28;20737;-85
2022/02/20 01:29:16;;;;;;;3.83;0.20;;;7.30;99.90;;;;;;5022253;28;20201;-85
2022/02/20 01:31:41;;;;;;;0.10;0.10;;;7.30;99.90;;;;;;5023785;28;21163;-85
2022/02/20 01:34:07;;;;;;;0.10;0.10;;;7.30;99.90;;;;;;5024235;28;20198;-85
2022/02/20 01:36:32;;;;;;;0.10;0.10;;;7.20;99.90;;;;;;5025418;28;20979;-84
2022/02/20 01:38:58;;;;;;;0.53;0.20;;;7.20;99.90;;;;;;5026960;28;20187;-86
2022/02/20 01:41:23;;;;;;;0.27;0.23;;;7.20;99.90;;;;;;5026403;28;20194;-86
2022/02/20 01:43:55;;;;;;;0.23;0.23;;;7.20;99.90;;;;;;5024119;28;20186;-85
2022/02/20 01:46:21;;;;;;;0.10;0.10;;;7.30;99.90;;;;;;5024846;28;20677;-85
2022/02/20 01:48:48;;;;;;;0.10;0.10;;;7.20;99.90;;;;;;5024789;28;20218;-87
2022/02/20 01:51:14;;;;;;;0.23;0.10;;;7.30;99.90;;;;;;5025947;28;20190;-87
2022/02/20 01:53:39;;;;;;;0.10;0.10;;;7.30;99.90;;;;;;5030383;28;20629;-85
2022/02/20 01:56:05;;;;;;;0.00;0.00;;;7.40;99.90;;;;;;5028686;28;20231;-88
2022/02/20 01:58:31;;;;;;;0.30;0.30;;;7.40;99.90;;;;;;5030084;28;20244;-84
2022/02/20 02:00:59;;;;;;;0.10;0.10;;;7.50;99.90;;;;;;5030301;28;20248;-85
2022/02/20 02:03:24;;;;;;;0.20;0.20;;;7.50;99.90;;;;;;5029947;28;20207;-87
2022/02/20 02:05:50;;;;;;;0.10;0.10;;;7.50;99.90;;;;;;5028135;28;20585;-85
2022/02/20 02:08:17;;;;;;;0.07;0.07;;;7.50;99.90;;;;;;5029012;28;20213;-85
2022/02/20 02:10:43;;;;;;;0.03;0.03;;;7.60;99.90;;;;;;5029031;28;20197;-85
2022/02/20 02:13:09;;;;;;;0.10;0.10;;;7.60;99.90;;;;;;5026599;28;20183;-84
2022/02/20 02:15:34;;;;;;;0.17;0.17;;;7.60;99.90;;;;;;5027192;28;20681;-86
2022/02/20 02:18:00;;;;;;;0.20;0.20;;;7.70;99.90;;;;;;5029734;28;20242;-85
2022/02/20 02:20:26;;;;;;;0.60;0.30;;;7.60;99.90;;;;;;5027155;28;20222;-85
2022/02/20 02:22:52;;;;;;;0.17;0.17;;;7.70;99.90;;;;;;5027866;28;20195;-85
2022/02/20 02:25:22;;;;;;;0.10;0.10;;;7.70;99.90;;;;;;5028844;28;20183;-85
2022/02/20 02:27:47;;;;;;;0.10;0.10;;;7.70;99.90;;;;;;5028360;28;20212;-85
2022/02/20 02:30:13;;;;;;;0.20;0.10;;;7.70;99.90;;;;;;5028952;28;20648;-87
2022/02/20 02:32:38;;;;;;;0.63;0.30;;;7.70;99.90;;;;;;5027114;28;20222;-85
2022/02/20 02:35:04;;;;;;;0.20;0.20;;;7.70;99.90;;;;;;5027855;28;20559;-86
2022/02/20 02:37:30;;;;;;;0.10;0.10;;;7.70;99.90;;;;;;5028667;28;20200;-85
2022/02/20 02:39:56;;;;;;;0.10;0.10;;;7.80;99.90;;;;;;5026834;28;20710;-85
2022/02/20 02:42:21;;;;;;;0.13;0.13;;;7.80;99.90;;;;;;5025544;28;20186;-85
2022/02/20 02:44:47;;;;;;;0.20;0.20;;;7.80;99.90;;;;;;5027571;28;20192;-87
2022/02/20 02:47:12;;;;;;;0.13;0.13;;;7.80;99.90;;;;;;5027771;28;20219;-87
2022/02/20 02:49:38;;;;;;;0.30;0.30;;;7.80;99.90;;;;;;5026931;28;20249;-85
2022/02/20 02:52:05;;;;;;;0.20;0.20;;;7.80;99.90;;;;;;5029411;28;20184;-86
2022/02/20 02:54:31;;;;;;;0.10;0.10;;;7.80;99.90;;;;;;5027286;28;20227;-86
2022/02/20 02:56:57;;;;;;;0.20;0.20;;;7.80;99.90;;;;;;5026555;28;20210;-87
2022/02/20 02:59:25;;;;;;;0.10;0.10;;;7.80;99.90;;;;;;5023415;28;20277;-86
2022/02/20 03:01:51;;;;;;;0.10;0.10;;;7.80;99.90;;;;;;5024978;28;20199;-85
2022/02/20 03:04:16;;;;;;;0.10;0.10;;;7.80;99.90;;;;;;5025174;28;20244;-87
2022/02/20 03:06:42;;;;;;;0.10;0.10;;;7.80;99.90;;;;;;5026343;28;20219;-86
2022/02/20 03:09:08;;;;;;;0.47;0.17;;;7.80;99.90;;;;;;5027693;28;20208;-86
2022/02/20 03:11:34;;;;;;;1.13;0.73;;;7.80;99.90;;;;;;5025153;28;20183;-85
2022/02/20 03:14:00;;;;;;;0.63;0.47;;;7.80;99.90;;;;;;5024001;28;20182;-85
2022/02/20 03:16:26;;;;;;;0.33;0.27;;;7.80;99.90;;;;;;5022922;28;20196;-86
2022/02/20 03:18:51;;;;;;;0.30;0.30;;;7.80;99.90;;;;;;5026061;28;20193;-86
2022/02/20 03:21:17;;;;;;;0.10;0.10;;;7.70;99.90;;;;;;5023643;28;20191;-86
2022/02/20 03:23:43;;;;;;;0.10;0.10;;;7.70;99.90;;;;;;5025501;28;20195;-85
2022/02/20 03:26:08;;;;;;;0.10;0.10;;;7.70;99.90;;;;;;5028186;28;20238;-87
2022/02/20 03:28:34;;;;;;;0.30;0.10;;;7.70;99.90;;;;;;5025119;28;20277;-85
2022/02/20 03:31:00;;;;;;;0.23;0.23;;;7.70;99.90;;;;;;5027490;28;20193;-86
2022/02/20 03:33:25;;;;;;;0.10;0.10;;;7.80;99.90;;;;;;5026258;28;20195;-86
2022/02/20 03:35:51;;;;;;;0.10;0.10;;;7.80;99.90;;;;;;5024319;28;20187;-86
2022/02/20 03:38:17;;;;;;;0.10;0.10;;;7.80;99.90;;;;;;5026302;28;20192;-87
2022/02/20 03:40:42;;;;;;;0.10;0.10;;;7.80;99.90;;;;;;5026219;28;20250;-86
2022/02/20 03:43:08;;;;;;;0.10;0.10;;;7.90;99.90;;;;;;5024144;28;20648;-86
2022/02/20 03:45:33;;;;;;;0.10;0.10;;;7.90;99.90;;;;;;5022084;28;20179;-87
2022/02/20 03:47:59;;;;;;;0.57;0.20;;;7.90;99.90;;;;;;5025540;28;20222;-86
2022/02/20 03:50:26;;;;;;;0.00;0.00;;;7.80;99.90;;;;;;5025283;28;20215;-86
2022/02/20 03:52:52;;;;;;;0.10;0.10;;;7.80;99.90;;;;;;5027414;28;20214;-86
2022/02/20 03:55:18;;;;;;;0.20;0.20;;;7.90;99.90;;;;;;5023674;28;20178;-87
2022/02/20 03:57:44;;;;;;;0.00;0.00;;;7.90;99.90;;;;;;5024566;28;20216;-85
2022/02/20 04:00:30;;;;;;;0.10;0.10;;;7.90;99.90;;;;;;5025727;28;20179;-87
2022/02/20 04:02:55;;;;;;;1.13;0.20;;;7.90;99.90;;;;;;5025975;28;20181;-85
2022/02/20 04:05:21;;;;;;;0.20;0.20;;;8.00;99.90;;;;;;5023712;28;20533;-87
2022/02/20 04:07:47;;;;;;;1.33;0.43;;;8.00;99.90;;;;;;5025572;28;20217;-85
2022/02/20 04:10:13;;;;;;;0.10;0.10;;;8.10;99.90;;;;;;5025280;28;20544;-86
2022/02/20 04:12:39;;;;;;;0.10;0.10;;;8.10;99.90;;;;;;5026953;28;20191;-87
2022/02/20 04:15:10;;;;;;;0.30;0.13;;;8.10;99.90;;;;;;5025189;28;20202;-86
2022/02/20 04:17:48;;;;;;;0.20;0.20;;;8.10;99.90;;;;;;5026444;28;20201;-86
2022/02/20 04:20:15;;;;;;;7.80;0.30;;;8.00;99.90;;;;;;5026469;28;20266;-86
2022/02/20 04:22:41;;;;;;;0.60;0.30;;;8.00;99.90;;;;;;5022410;28;20694;-86
2022/02/20 04:25:08;;;;;;;0.10;0.10;;;8.00;99.90;;;;;;5025602;28;20190;-87
2022/02/20 04:27:34;;;;;;;0.20;0.20;;;8.00;99.90;;;;;;5024958;28;20209;-86
2022/02/20 04:29:59;;;;;;;0.10;0.10;;;8.00;99.90;;;;;;5022948;28;20716;-85
2022/02/20 04:32:25;;;;;;;0.20;0.20;;;8.00;99.90;;;;;;5026977;28;20184;-85
2022/02/20 04:34:50;;;;;;;0.40;0.40;;;8.00;99.90;;;;;;5026112;28;20187;-86
2022/02/20 04:37:16;;;;;;;0.30;0.30;;;8.00;99.90;;;;;;5023074;28;20275;-85
2022/02/20 04:39:41;;;;;;;0.13;0.13;;;8.00;99.90;;;;;;5016819;28;20215;-85
2022/02/20 04:42:07;;;;;;;0.03;0.03;;;7.90;99.90;;;;;;5025068;28;20298;-86
2022/02/20 04:44:32;;;;;;;0.33;0.30;;;7.90;99.90;;;;;;5020081;28;20582;-84
2022/02/20 04:46:58;;;;;;;0.10;0.10;;;7.90;99.90;;;;;;5022670;28;20736;-85
2022/02/20 04:49:23;;;;;;;0.03;0.03;;;7.80;99.90;;;;;;5026144;28;20193;-86
2022/02/20 04:51:50;;;;;;;0.20;0.20;;;7.80;99.90;;;;;;5020966;28;20263;-85
2022/02/20 04:54:15;;;;;;;0.10;0.10;;;7.70;99.90;;;;;;5022610;28;20253;-86
2022/02/20 04:56:44;;;;;;;0.10;0.10;;;7.80;99.90;;;;;;5018052;28;20192;-85
2022/02/20 04:59:11;;;;;;;0.10;0.10;;;7.80;99.90;;;;;;5023908;28;20188;-85
2022/02/20 05:01:38;;;;;;;3.80;0.73;;;7.80;99.90;;;;;;5022582;28;20185;-87
2022/02/20 05:04:05;;;;;;;0.17;0.17;;;7.70;99.90;;;;;;5023760;28;20183;-86
2022/02/20 05:06:30;;;;;;;0.10;0.10;;;7.70;99.90;;;;;;5022422;28;20230;-85
2022/02/20 05:08:57;;;;;;;0.10;0.10;;;7.60;99.90;;;;;;5025801;28;20219;-86
2022/02/20 05:11:24;;;;;;;0.20;0.20;;;7.50;99.90;;;;;;5024316;28;20181;-85
2022/02/20 05:13:51;;;;;;;0.63;0.37;;;7.50;99.90;;;;;;5023619;28;20205;-86
2022/02/20 05:16:17;;;;;;;0.23;0.10;;;7.50;99.90;;;;;;5023438;28;20221;-86
2022/02/20 05:18:43;;;;;;;1.10;0.40;;;7.40;99.90;;;;;;5023638;28;20269;-86
2022/02/20 05:21:10;;;;;;;1.13;0.13;;;7.40;99.90;;;;;;5024367;28;20718;-86
2022/02/20 05:23:35;;;;;;;0.00;0.00;;;7.30;99.90;;;;;;5024356;28;20184;-86
2022/02/20 05:26:02;;;;;;;0.20;0.20;;;7.30;99.90;;;;;;5023186;28;20185;-86
2022/02/20 05:28:28;;;;;;;0.10;0.10;;;7.20;99.90;;;;;;5021768;28;20198;-86
2022/02/20 05:30:53;;;;;;;0.07;0.07;;;7.20;99.90;;;;;;5022328;28;20260;-87
2022/02/20 05:33:19;;;;;;;0.10;0.10;;;7.20;99.90;;;;;;5017726;28;20178;-86
2022/02/20 05:35:44;;;;;;;1.03;0.30;;;7.20;99.90;;;;;;5023119;28;20191;-86
2022/02/20 05:38:11;;;;;;;0.10;0.10;;;7.20;99.90;;;;;;5021224;28;20199;-86
2022/02/20 05:40:37;;;;;;;0.17;0.17;;;7.30;99.90;;;;;;5024158;28;20750;-87
2022/02/20 05:43:04;;;;;;;0.00;0.00;;;7.30;99.90;;;;;;5026262;28;20183;-86
2022/02/20 05:45:30;;;;;;;0.07;0.07;;;7.30;99.90;;;;;;5023843;28;20181;-85
2022/02/20 05:47:56;;;;;;;0.10;0.10;;;7.30;99.90;;;;;;5023451;28;20809;-86
2022/02/20 05:50:21;;;;;;;0.10;0.10;;;7.30;99.90;;;;;;5021988;28;20191;-85
2022/02/20 05:52:47;;;;;;;0.03;0.03;;;7.20;99.90;;;;;;5022581;28;20179;-85
2022/02/20 05:55:12;;;;;;;0.10;0.10;;;7.20;99.90;;;;;;5021053;28;20534;-86
2022/02/20 05:57:42;;;;;;;0.10;0.10;;;7.20;99.90;;;;;;5022361;28;20200;-85
2022/02/20 06:00:09;;;;;;;0.10;0.10;;;7.00;99.90;;;;;;5020941;28;20186;-85
2022/02/20 06:02:35;;;;;;;0.10;0.10;;;7.00;99.90;;;;;;5025049;28;20545;-86
2022/02/20 06:05:01;;;;;;;0.10;0.10;;;7.00;99.90;;;;;;5021658;28;20214;-86
2022/02/20 06:07:26;;;;;;;0.10;0.10;;;7.00;99.90;;;;;;5023247;28;20217;-86
2022/02/20 06:09:52;;;;;;;0.10;0.10;;;6.90;99.90;;;;;;5023541;28;20192;-87
2022/02/20 06:12:17;;;;;;;0.10;0.10;;;6.90;99.90;;;;;;5026189;28;20233;-85
2022/02/20 06:14:43;;;;;;;0.20;0.20;;;7.00;99.90;;;;;;5020538;28;20226;-86
2022/02/20 06:17:08;;;;;;;0.10;0.10;;;7.00;99.90;;;;;;5019190;28;20406;-86
2022/02/20 06:19:35;;;;;;;0.10;0.10;;;7.00;99.90;;;;;;5025189;28;20184;-85
2022/02/20 06:22:01;;;;;;;0.00;0.00;;;7.20;99.90;;;;;;5025098;28;20186;-85
2022/02/20 06:24:26;;;;;;;0.10;0.10;;;7.30;99.90;;;;;;5021857;28;20237;-85
2022/02/20 06:26:52;;;;;;;0.10;0.10;;;7.30;99.90;;;;;;5018828;28;20926;-86
2022/02/20 06:29:17;;;;;;;0.10;0.10;;;7.30;99.90;;;;;;5031610;28;20220;-86
2022/02/20 06:31:43;;;;;;;0.20;0.20;;;7.40;99.90;;;;;;5022619;28;20261;-84
2022/02/20 06:34:08;;;;;;;0.13;0.13;;;7.40;99.90;;;;;;5020864;28;20586;-85
2022/02/20 06:36:35;;;;;;;0.00;0.00;;;7.50;99.90;;;;;;5025536;28;20401;-85
2022/02/20 06:39:02;;;;;;;0.30;0.30;;;7.50;99.90;;;;;;5022669;28;20369;-86
2022/02/20 06:41:28;;;;;;;0.10;0.10;;;7.50;99.90;;;;;;5029644;28;20188;-85
2022/02/20 06:43:53;;;;;;;0.10;0.10;;;7.50;99.90;;;;;;5026654;28;20189;-85
2022/02/20 06:46:19;;;;;;;0.20;0.10;;;7.60;99.90;;;;;;5025418;28;20254;-85
2022/02/20 06:48:44;;;;;;;0.43;0.43;;;7.60;99.90;;;;;;5027428;28;20575;-85
2022/02/20 06:51:10;;;;;;;5.77;0.20;;;7.70;99.90;;;;;;5027931;28;20186;-85
2022/02/20 06:53:36;;;;;;;0.00;0.00;;;7.80;99.90;;;;;;5028916;28;20245;-85
2022/02/20 06:56:01;;;;;;;0.90;0.90;;;7.80;99.90;;;;;;5027192;28;21037;-86
2022/02/20 06:58:27;;;;;;;0.10;0.10;;;7.80;99.90;;;;;;5029101;28;20187;-85
2022/02/20 07:00:53;;;;;;;0.10;0.10;;;7.80;99.90;;;;;;5027638;28;20645;-85
2022/02/20 07:03:18;;;;;;;0.10;0.10;;;7.80;99.90;;;;;;5027740;28;20189;-85
2022/02/20 07:05:44;;;;;;;0.20;0.20;;;7.80;99.90;;;;;;5026837;28;20199;-86
2022/02/20 07:08:10;;;;;;;0.13;0.13;;;7.90;99.90;;;;;;5026580;28;20198;-86
2022/02/20 07:10:35;;;;;;;0.13;0.10;;;8.00;99.90;;;;;;5026949;28;20174;-84
2022/02/20 07:13:01;;;;;;;4.23;0.60;;;8.00;99.90;;;;;;5025801;28;20225;-86
2022/02/20 07:15:26;;;;;;;0.20;0.20;;;8.00;99.90;;;;;;5028318;28;20176;-85
2022/02/20 07:17:53;;;;;;;0.53;0.17;;;8.00;99.90;;;;;;5027819;28;20242;-85
2022/02/20 07:20:18;;;;;;;3.40;0.20;;;8.10;99.90;;;;;;5027895;28;20249;-84
2022/02/20 07:22:45;;;;;;;0.03;0.03;;;8.10;99.90;;;;;;5026833;28;20187;-85
2022/02/20 07:25:11;;;;;;;0.73;0.23;;;8.10;99.90;;;;;;5028619;28;20184;-86
2022/02/20 07:27:38;;;;;;;0.10;0.10;;;8.10;99.90;;;;;;5024462;28;20209;-86
2022/02/20 07:30:04;;;;;;;0.20;0.20;;;8.20;99.90;;;;;;5026759;28;20652;-85
2022/02/20 07:32:30;;;;;;;0.50;0.30;;;8.20;99.90;;;;;;5029621;28;20638;-84
2022/02/20 07:34:55;;;;;;;0.10;0.10;;;8.20;99.90;;;;;;5028140;28;20189;-85
2022/02/20 07:37:21;;;;;;;0.30;0.20;;;8.20;99.90;;;;;;5028460;28;20205;-85
2022/02/20 07:39:47;;;;;;;0.10;0.10;;;8.10;99.90;;;;;;5028113;28;20188;-86
2022/02/20 07:42:13;;;;;;;0.27;0.27;;;8.20;99.90;;;;;;5027193;28;20197;-85
2022/02/20 07:44:39;;;;;;;0.20;0.20;;;8.20;99.90;;;;;;5024189;28;20183;-85
2022/02/20 07:47:04;;;;;;;0.30;0.30;;;8.10;99.90;;;;;;5018462;28;20749;-85
2022/02/20 07:49:30;;;;;;;0.73;0.20;;;8.20;99.90;;;;;;5026770;28;20217;-86
2022/02/20 07:51:56;;;;;;;0.10;0.10;;;8.20;99.90;;;;;;5025200;28;20230;-85
2022/02/20 07:54:21;;;;;;;0.20;0.20;;;8.10;99.90;;;;;;5027008;28;20185;-82
2022/02/20 07:56:47;;;;;;;0.47;0.47;;;8.20;99.90;;;;;;5028384;28;20213;-82
2022/02/20 07:59:12;;;;;;;1.90;0.30;;;8.20;99.90;;;;;;5030252;28;20190;-83
2022/02/20 08:01:38;;;;;;;0.40;0.40;;;8.20;99.90;;;;;;5026440;28;20189;-83
2022/02/20 08:04:03;;;;;;;0.53;0.23;;;8.20;99.90;;;;;;5027818;28;20190;-83
2022/02/20 08:06:29;;;;;;;0.40;0.40;;;8.20;99.90;;;;;;5025996;28;20309;-82
2022/02/20 08:08:55;;;;;;;0.47;0.47;;;8.10;99.90;;;;;;5022453;28;20208;-82
2022/02/20 08:11:21;;;;;;;0.70;0.70;;;8.10;99.90;;;;;;5029831;28;20182;-82
2022/02/20 08:13:46;;;;;;;0.10;0.10;;;8.10;99.90;;;;;;5027786;28;20180;-81
2022/02/20 08:16:12;;;;;;;0.10;0.10;;;8.20;99.90;;;;;;5029415;28;20206;-82
2022/02/20 08:18:37;;;;;;;0.10;0.10;;;8.10;99.90;;;;;;5023739;28;20277;-85
2022/02/20 08:21:03;;;;;;;0.30;0.30;;;8.10;99.90;;;;;;5024449;28;20201;-84
2022/02/20 08:23:28;;;;;;;0.23;0.17;;;8.10;99.90;;;;;;5021008;28;20201;-85
2022/02/20 08:25:54;;;;;;;0.47;0.20;;;8.10;99.90;;;;;;5023034;28;20670;-83
2022/02/20 08:28:20;;;;;;;0.10;0.10;;;8.10;99.90;;;;;;5019145;28;20196;-84
2022/02/20 08:30:46;;;;;;;0.17;0.17;;;8.20;99.90;;;;;;5025425;28;20233;-85
2022/02/20 08:33:13;;;;;;;0.20;0.20;;;8.20;99.90;;;;;;5025134;28;20190;-85
2022/02/20 08:35:38;;;;;;;0.20;0.10;;;8.20;99.90;;;;;;5023021;28;20180;-85
2022/02/20 08:38:06;;;;;;;0.20;0.20;;;8.20;99.90;;;;;;5021498;28;20206;-85
2022/02/20 08:40:33;;;;;;;2.07;0.33;;;8.20;99.90;;;;;;5020431;28;20187;-85
2022/02/20 08:42:58;;;;;;;0.10;0.10;;;8.20;99.90;;;;;;5022169;28;20266;-85
2022/02/20 08:45:24;;;;;;;0.17;0.17;;;8.20;99.90;;;;;;5022389;28;20199;-85
2022/02/20 08:47:50;;;;;;;0.60;0.60;;;8.20;99.90;;;;;;5019593;28;20209;-84
2022/02/20 08:50:15;;;;;;;0.10;0.10;;;8.20;99.90;;;;;;5019564;28;20183;-84
2022/02/20 08:52:45;;;;;;;0.30;0.30;;;8.20;99.90;;;;;;5023278;28;20191;-84
2022/02/20 08:55:11;;;;;;;0.10;0.10;;;8.20;99.90;;;;;;5022955;28;20172;-83
2022/02/20 08:57:37;;;;;;;0.37;0.37;;;8.20;99.90;;;;;;5020483;28;20207;-83
2022/02/20 09:00:06;;;;;;;0.10;0.10;;;8.20;99.90;;;;;;5019826;28;20254;-82
2022/02/20 09:02:31;;;;;;;0.10;0.10;;;8.20;99.90;;;;;;5021531;28;20557;-82
2022/02/20 09:04:57;;;;;;;0.20;0.20;;;8.20;99.90;;;;;;5019439;28;20204;-83
2022/02/20 09:07:23;;;;;;;0.10;0.10;;;8.20;99.90;;;;;;5022767;28;20241;-82
2022/02/20 09:09:49;;;;;;;0.13;0.13;;;8.20;99.90;;;;;;5023449;28;20184;-83
2022/02/20 09:12:14;;;;;;;0.10;0.10;;;8.20;99.90;;;;;;5023818;28;20269;-83
2022/02/20 09:14:41;;;;;;;0.30;0.30;;;8.30;99.90;;;;;;5021959;28;20210;-82
2022/02/20 09:17:07;;;;;;;0.13;0.13;;;8.30;99.90;;;;;;5020763;28;20210;-83
2022/02/20 09:19:33;;;;;;;0.10;0.10;;;8.30;99.90;;;;;;5018803;28;20545;-82
2022/02/20 09:21:59;;;;;;;0.10;0.10;;;8.30;99.90;;;;;;5021236;28;20189;-82
2022/02/20 09:24:24;;;;;;;0.20;0.20;;;8.40;99.90;;;;;;5019626;28;20412;-82
2022/02/20 09:26:50;;;;;;;0.10;0.10;;;8.40;99.90;;;;;;5018861;28;20207;-82
2022/02/20 09:29:17;;;;;;;0.13;0.10;;;8.50;99.90;;;;;;5025179;28;20685;-83
2022/02/20 09:31:44;;;;;;;0.17;0.17;;;8.40;99.90;;;;;;5021766;28;20182;-82
2022/02/20 09:34:10;;;;;;;0.50;0.50;;;8.50;99.90;;;;;;5024735;28;20193;-82
2022/02/20 09:36:35;;;;;;;0.20;0.20;;;8.50;99.90;;;;;;5023194;28;20216;-82
2022/02/20 09:39:01;;;;;;;0.73;0.73;;;8.60;99.90;;;;;;5022849;28;20198;-82
2022/02/20 09:41:29;;;;;;;0.10;0.10;;;8.60;99.90;;;;;;5026824;28;20190;-82
2022/02/20 09:43:56;;;;;;;0.10;0.10;;;8.60;99.90;;;;;;5027733;28;20196;-82
2022/02/20 09:46:22;;;;;;;0.30;0.30;;;8.60;99.90;;;;;;5027935;28;20270;-82
2022/02/20 09:48:51;;;;;;;0.30;0.13;;;8.70;99.90;;;;;;5027215;28;20208;-82
2022/02/20 09:51:17;;;;;;;0.20;0.20;;;8.70;99.90;;;;;;5022965;28;20184;-82
2022/02/20 09:53:43;;;;;;;0.10;0.10;;;8.70;99.90;;;;;;5024899;28;20178;-83
2022/02/20 09:56:08;;;;;;;0.20;0.20;;;8.70;99.90;;;;;;5022503;28;20225;-82
2022/02/20 09:58:34;;;;;;;0.20;0.10;;;8.80;99.90;;;;;;5025237;28;20187;-82
2022/02/20 10:01:04;;;;;;;0.30;0.30;;;8.70;99.90;;;;;;5025777;28;20222;-82
2022/02/20 10:03:37;;;;;;;0.27;0.27;;;8.80;99.90;;;;;;5028151;28;20179;-84
2022/02/20 10:06:09;;;;;;;0.10;0.10;;;8.80;99.90;;;;;;5023888;28;20206;-85
2022/02/20 10:08:40;;;;;;;0.40;0.20;;;8.80;99.90;;;;;;5015807;28;20599;-85
2022/02/20 10:11:12;;;;;;;0.23;0.20;;;8.80;99.90;;;;;;5024239;28;20673;-84
2022/02/20 10:13:38;;;;;;;0.13;0.13;;;8.80;99.90;;;;;;5029399;28;20184;-84
2022/02/20 10:16:27;;;;;;;0.47;0.20;;;8.80;99.90;;;;;;5028691;28;20238;-86
2022/02/20 10:18:55;;;;;;;0.13;0.13;;;8.80;99.90;;;;;;5024963;28;20201;-85
2022/02/20 10:21:29;;;;;;;0.10;0.10;;;8.90;99.90;;;;;;5029071;28;20196;-85
2022/02/20 10:24:03;;;;;;;0.10;0.10;;;8.90;99.90;;;;;;5031947;28;20264;-85
2022/02/20 10:26:29;;;;;;;0.10;0.10;;;8.90;99.90;;;;;;5027135;28;20683;-86
2022/02/20 10:29:00;;;;;;;0.10;0.10;;;9.00;99.90;;;;;;5026019;28;20202;-83
2022/02/20 10:31:46;;;;;;;0.20;0.20;;;9.00;99.90;;;;;;5029504;28;20182;-82
2022/02/20 10:34:13;;;;;;;0.23;0.23;;;9.10;99.90;;;;;;5030535;28;20235;-82
2022/02/20 10:36:53;;;;;;;0.20;0.20;;;9.20;99.90;;;;;;5014042;28;20581;-82
2022/02/20 10:39:19;;;;;;;0.10;0.10;;;9.20;99.90;;;;;;5029059;28;20183;-83
2022/02/20 10:41:45;;;;;;;2.27;0.70;;;9.40;99.90;;;;;;5027308;28;20210;-82
2022/02/20 10:44:12;;;;;;;0.27;0.27;;;9.50;99.90;;;;;;5029995;28;20539;-83
2022/02/20 10:46:38;;;;;;;0.30;0.30;;;9.50;99.90;;;;;;5028398;28;21100;-83
2022/02/20 10:49:04;;;;;;;0.30;0.30;;;9.50;99.90;;;;;;5025643;28;20248;-83
2022/02/20 10:51:41;;;;;;;0.10;0.10;;;9.50;99.90;;;;;;5028175;28;20194;-83
2022/02/20 10:54:07;;;;;;;0.10;0.10;;;9.50;99.90;;;;;;5027601;28;21239;-83
2022/02/20 10:56:44;;;;;;;0.17;0.17;;;9.60;99.90;;;;;;5027285;28;20205;-83
2022/02/20 10:59:10;;;;;;;0.17;0.17;;;9.60;99.90;;;;;;5028380;28;20674;-83
2022/02/20 11:01:36;;;;;;;0.30;0.30;;;9.50;99.90;;;;;;5028893;28;20197;-83
2022/02/20 11:04:10;;;;;;;0.13;0.13;;;9.60;99.90;;;;;;5024835;28;20200;-83
2022/02/20 11:06:38;;;;;;;0.10;0.10;;;9.50;99.90;;;;;;5030051;28;20227;-82
2022/02/20 11:09:04;;;;;;;0.20;0.20;;;9.60;99.90;;;;;;5028010;28;20849;-82
2022/02/20 11:11:42;;;;;;;0.20;0.20;;;9.60;99.90;;;;;;5028862;28;20561;-82
2022/02/20 11:14:12;;;;;;;0.23;0.23;;;9.60;99.90;;;;;;5027557;28;20187;-83
2022/02/20 11:16:52;;;;;;;0.10;0.10;;;9.70;99.90;;;;;;5028265;28;20221;-83
2022/02/20 11:19:21;;;;;;;0.40;0.20;;;9.60;99.90;;;;;;5025387;28;20255;-83
2022/02/20 11:21:51;;;;;;;0.00;0.00;;;9.70;99.90;;;;;;5029697;28;20194;-83
2022/02/20 11:24:17;;;;;;;0.10;0.10;;;9.70;99.90;;;;;;5020391;28;20206;-82
2022/02/20 11:26:44;;;;;;;0.17;0.17;;;9.70;99.90;;;;;;5024273;28;20214;-82
2022/02/20 11:29:11;;;;;;;0.30;0.30;;;9.70;99.90;;;;;;5025989;28;20210;-82
2022/02/20 11:31:38;;;;;;;0.10;0.10;;;9.80;99.90;;;;;;5026908;28;20284;-83
2022/02/20 11:34:05;;;;;;;0.10;0.10;;;9.80;99.90;;;;;;5028347;28;20789;-84
2022/02/20 11:36:32;;;;;;;0.10;0.10;;;9.80;99.90;;;;;;5026676;28;20210;-82
2022/02/20 11:39:13;;;;;;;0.10;0.10;;;9.80;99.90;;;;;;5028079;28;20181;-82
2022/02/20 11:42:00;;;;;;;0.10;0.10;;;9.80;99.90;;;;;;5022899;28;20241;-83
2022/02/20 11:44:26;;;;;;;0.10;0.10;;;9.80;99.90;;;;;;5025376;28;20203;-83
2022/02/20 11:46:53;;;;;;;0.00;0.00;;;9.80;99.90;;;;;;5025274;28;20210;-83
2022/02/20 11:49:26;;;;;;;0.10;0.10;;;9.80;99.90;;;;;;5018117;28;20203;-82
2022/02/20 11:52:09;;;;;;;0.10;0.10;;;9.80;99.90;;;;;;5017265;28;20540;-83
2022/02/20 11:54:37;;;;;;;0.10;0.10;;;9.90;99.90;;;;;;5024965;28;21234;-83
2022/02/20 11:57:12;;;;;;;0.10;0.10;;;9.90;99.90;;;;;;5026581;28;20211;-83
2022/02/20 12:00:01;;;;;;;0.10;0.10;;;9.90;99.90;;;;;;5028035;28;20205;-82
2022/02/20 12:02:27;;;;;;;0.30;0.20;;;9.90;99.90;;;;;;5024659;28;20670;-83
2022/02/20 12:04:53;;;;;;;0.10;0.10;;;9.90;99.90;;;;;;5025981;28;20296;-82
2022/02/20 12:07:43;;;;;;;0.00;0.00;;;9.90;99.90;;;;;;5021136;28;20921;-83
2022/02/20 12:10:21;;;;;;;0.10;0.10;;;9.90;99.90;;;;;;5021432;28;20204;-83
2022/02/20 12:12:48;;;;;;;0.30;0.30;;;9.90;99.90;;;;;;5027817;28;20253;-83
2022/02/20 12:15:34;;;;;;;0.60;0.40;;;9.90;99.90;;;;;;5029273;28;20213;-83
2022/02/20 12:18:12;;;;;;;0.20;0.20;;;9.90;99.90;;;;;;5027070;28;20228;-83
2022/02/20 12:20:54;;;;;;;0.10;0.10;;;9.90;99.90;;;;;;5029821;28;20290;-83
2022/02/20 12:23:31;;;;;;;0.13;0.13;;;9.90;99.90;;;;;;5029778;28;20185;-84
2022/02/20 12:26:00;;;;;;;0.60;0.10;;;9.90;99.90;;;;;;5026868;28;20288;-83
2022/02/20 12:28:38;;;;;;;0.10;0.10;;;9.90;99.90;;;;;;5023221;28;20204;-86
2022/02/20 12:31:13;;;;;;;0.10;0.10;;;10.00;99.90;;;;;;5019637;28;20181;-83
2022/02/20 12:33:45;;;;;;;2.30;1.03;;;10.10;99.90;;;;;;5025799;28;20286;-84
2022/02/20 12:36:11;;;;;;;0.10;0.10;;;10.20;99.90;;;;;;5020257;28;20219;-82
2022/02/20 12:38:57;;;;;;;0.10;0.10;;;10.30;99.90;;;;;;5027279;28;20207;-83
2022/02/20 12:41:23;;;;;;;0.10;0.10;;;10.40;99.90;;;;;;5027982;28;20181;-82
2022/02/20 12:43:54;;;;;;;0.20;0.20;;;10.40;99.90;;;;;;5029362;28;20266;-83
2022/02/20 12:46:21;;;;;;;0.17;0.17;;;10.40;99.90;;;;;;5024116;28;20216;-82
2022/02/20 12:48:48;;;;;;;0.00;0.00;;;10.40;99.90;;;;;;5028291;28;21514;-83
2022/02/20 12:51:14;;;;;;;0.27;0.27;;;10.40;99.90;;;;;;5026607;28;20578;-82
2022/02/20 12:53:44;;;;;;;0.17;0.17;;;10.40;99.90;;;;;;5026111;28;20245;-82
2022/02/20 12:56:10;;;;;;;0.10;0.10;;;10.40;99.90;;;;;;5028490;28;20283;-82
2022/02/20 12:58:49;;;;;;;0.10;0.10;;;10.50;99.90;;;;;;5018644;28;20331;-82